Time;durP1;ratioP1;P1;durP2;ratioP2;P2;SDS_P1;SDS_P2;PMS_P1;PMS_P2;Temp;Humidity;BMP_temperature;BMP_pressure;BME280_temperature;BME280_humidity;BME280_pressure;Samples;Min_cycle;Max_cycle;Signal;HPM_P1;HPM_P2
2022/06/08 00:02:06;;;;;;;7.88;3.28;;;;;;;;;;5066574;28;20036;-83
2022/06/08 00:04:33;;;;;;;5.65;3.70;;;;;;;;;;5065968;28;20050;-84
2022/06/08 00:06:59;;;;;;;8.38;3.78;;;;;;;;;;5066680;28;20036;-86
2022/06/08 00:09:26;;;;;;;6.43;3.60;;;;;;;;;;5067071;28;20127;-85
2022/06/08 00:11:53;;;;;;;5.63;3.95;;;;;;;;;;5068402;28;20040;-85
2022/06/08 00:14:19;;;;;;;7.25;4.13;;;;;;;;;;5068459;28;20032;-86
2022/06/08 00:16:45;;;;;;;7.93;3.85;;;;;;;;;;5068317;28;20036;-88
2022/06/08 00:19:11;;;;;;;6.65;3.92;;;;;;;;;;5066826;28;20041;-86
2022/06/08 00:21:37;;;;;;;5.57;3.35;;;;;;;;;;5067825;28;20523;-81
2022/06/08 00:24:04;;;;;;;10.13;4.10;;;;;;;;;;5067452;28;20044;-82
2022/06/08 00:26:29;;;;;;;6.57;4.00;;;;;;;;;;5065829;28;20037;-83
2022/06/08 00:28:55;;;;;;;8.20;4.07;;;;;;;;;;5065466;28;20032;-84
2022/06/08 00:31:21;;;;;;;8.90;4.65;;;;;;;;;;5069439;28;20058;-84
2022/06/08 00:33:48;;;;;;;5.78;4.30;;;;;;;;;;5077305;28;20032;-83
2022/06/08 00:36:14;;;;;;;7.65;5.40;;;;;;;;;;5077265;28;20395;-83
2022/06/08 00:38:40;;;;;;;12.40;6.10;;;;;;;;;;5077474;28;20090;-84
2022/06/08 00:41:15;;;;;;;10.77;6.63;;;;;;;;;;5077028;28;20092;-80
2022/06/08 00:43:42;;;;;;;13.05;6.20;;;;;;;;;;5094321;28;20047;-85
2022/06/08 00:46:09;;;;;;;10.85;6.28;;;;;;;;;;5077511;28;20388;-86
2022/06/08 00:48:39;;;;;;;14.15;6.75;;;;;;;;;;5077367;28;20050;-84
2022/06/08 00:51:05;;;;;;;10.15;5.30;;;;;;;;;;5076891;28;20044;-85
2022/06/08 00:53:34;;;;;;;9.88;5.68;;;;;;;;;;5077086;28;20036;-87
2022/06/08 00:56:02;;;;;;;9.18;5.13;;;;;;;;;;5077742;28;20044;-89
2022/06/08 00:58:29;;;;;;;10.45;5.15;;;;;;;;;;5077555;28;20032;-85
2022/06/08 01:00:56;;;;;;;7.93;4.50;;;;;;;;;;5094049;28;20496;-85
2022/06/08 01:03:22;;;;;;;8.75;4.32;;;;;;;;;;5077036;28;20050;-83
2022/06/08 01:05:53;;;;;;;10.23;5.50;;;;;;;;;;5077134;28;20047;-86
2022/06/08 01:08:19;;;;;;;8.88;5.13;;;;;;;;;;5076781;28;20043;-83
2022/06/08 01:10:46;;;;;;;9.75;4.95;;;;;;;;;;5075492;28;20480;-82
2022/06/08 01:13:12;;;;;;;7.38;5.05;;;;;;;;;;5076550;28;20110;-85
2022/06/08 01:15:40;;;;;;;6.43;4.32;;;;;;;;;;5076524;28;20148;-83
2022/06/08 01:18:06;;;;;;;10.35;4.97;;;;;;;;;;5076545;28;20040;-84
2022/06/08 01:20:32;;;;;;;8.10;4.60;;;;;;;;;;5076451;28;20043;-85
2022/06/08 01:22:58;;;;;;;8.63;4.20;;;;;;;;;;5076439;28;20040;-85
2022/06/08 01:25:25;;;;;;;6.55;4.63;;;;;;;;;;5076308;28;20426;-84
2022/06/08 01:28:05;;;;;;;12.40;5.10;;;;;;;;;;5076416;28;20118;-84
2022/06/08 01:30:37;;;;;;;9.55;5.25;;;;;;;;;;5076427;28;20066;-81
2022/06/08 01:33:16;;;;;;;10.30;4.88;;;;;;;;;;5076215;28;20055;-81
2022/06/08 01:36:01;;;;;;;6.72;4.40;;;;;;;;;;5076602;28;20090;-84
2022/06/08 01:38:39;;;;;;;9.88;5.47;;;;;;;;;;5076269;28;20396;-87
2022/06/08 01:41:17;;;;;;;11.50;6.13;;;;;;;;;;5075890;28;20059;-87
2022/06/08 01:43:46;;;;;;;12.30;5.53;;;;;;;;;;5076145;28;20048;-86
2022/06/08 01:46:17;;;;;;;9.40;5.78;;;;;;;;;;5076340;28;20324;-88
2022/06/08 01:48:46;;;;;;;10.23;5.72;;;;;;;;;;5076759;28;20039;-89
2022/06/08 01:51:15;;;;;;;9.82;5.97;;;;;;;;;;5076751;28;20135;-88
2022/06/08 01:53:47;;;;;;;9.35;5.18;;;;;;;;;;5076298;28;20126;-88
2022/06/08 01:56:21;;;;;;;11.35;5.47;;;;;;;;;;5093661;28;20074;-87
2022/06/08 01:58:54;;;;;;;11.98;5.90;;;;;;;;;;5076340;28;20039;-85
2022/06/08 02:01:27;;;;;;;11.27;5.60;;;;;;;;;;5076520;28;20042;-87
2022/06/08 02:04:06;;;;;;;10.43;5.72;;;;;;;;;;5075964;28;20086;-87
2022/06/08 02:06:39;;;;;;;11.68;5.97;;;;;;;;;;5075741;28;20516;-81
2022/06/08 02:09:10;;;;;;;10.27;5.18;;;;;;;;;;5075805;28;20131;-85
2022/06/08 02:11:51;;;;;;;9.02;5.45;;;;;;;;;;5075787;28;20051;-89
2022/06/08 02:14:21;;;;;;;11.02;5.70;;;;;;;;;;5076541;28;20131;-93
2022/06/08 02:16:51;;;;;;;13.25;6.20;;;;;;;;;;5075997;28;20047;-85
2022/06/08 02:19:17;;;;;;;10.63;5.65;;;;;;;;;;5075570;28;20079;-82
2022/06/08 02:21:46;;;;;;;9.73;5.55;;;;;;;;;;5075178;28;20583;-86
2022/06/08 02:24:25;;;;;;;12.20;6.05;;;;;;;;;;5075799;28;20043;-90
2022/06/08 02:26:56;;;;;;;12.63;5.85;;;;;;;;;;5075979;28;20036;-90
2022/06/08 02:29:24;;;;;;;10.57;5.55;;;;;;;;;;5092828;28;20093;-90
2022/06/08 02:31:53;;;;;;;10.80;5.18;;;;;;;;;;5075891;28;20040;-87
2022/06/08 02:34:39;;;;;;;14.68;5.43;;;;;;;;;;5076314;28;20492;-93
2022/06/08 02:37:22;;;;;;;11.00;5.78;;;;;;;;;;5075647;28;20044;-90
2022/06/08 02:39:51;;;;;;;11.60;6.57;;;;;;;;;;5075791;28;20060;-88
2022/06/08 02:42:29;;;;;;;9.90;6.32;;;;;;;;;;5076131;28;20488;-91
2022/06/08 02:44:57;;;;;;;9.50;4.80;;;;;;;;;;5075839;28;20036;-90
2022/06/08 02:47:31;;;;;;;10.15;4.88;;;;;;;;;;5075681;28;20051;-89
2022/06/08 02:50:01;;;;;;;8.88;5.78;;;;;;;;;;5075774;28;20515;-90
2022/06/08 02:52:28;;;;;;;9.10;5.78;;;;;;;;;;5075599;28;20050;-91
2022/06/08 02:54:54;;;;;;;10.98;5.53;;;;;;;;;;5075913;28;20040;-88
2022/06/08 02:57:30;;;;;;;10.30;5.68;;;;;;;;;;5093127;28;20075;-89
2022/06/08 03:00:17;;;;;;;12.32;6.05;;;;;;;;;;5075767;28;20452;-91
2022/06/08 03:02:51;;;;;;;12.70;6.88;;;;;;;;;;5075907;28;20052;-89
2022/06/08 03:05:17;;;;;;;12.00;6.28;;;;;;;;;;5075629;28;20048;-91
2022/06/08 03:07:46;;;;;;;10.20;6.40;;;;;;;;;;5075737;28;20134;-90
2022/06/08 03:10:14;;;;;;;10.98;6.20;;;;;;;;;;5075198;28;20054;-91
2022/06/08 03:12:43;;;;;;;10.70;6.82;;;;;;;;;;5075428;28;20392;-91
2022/06/08 03:15:10;;;;;;;12.15;6.40;;;;;;;;;;5076292;28;20085;-93
2022/06/08 03:17:37;;;;;;;11.52;7.07;;;;;;;;;;5075701;28;20036;-91
2022/06/08 03:20:05;;;;;;;11.13;6.00;;;;;;;;;;5075200;28;20047;-91
2022/06/08 03:22:31;;;;;;;9.48;5.93;;;;;;;;;;5075212;28;20046;-91
2022/06/08 03:24:58;;;;;;;11.48;6.70;;;;;;;;;;5075544;28;20044;-90
2022/06/08 03:27:24;;;;;;;13.63;6.90;;;;;;;;;;5075236;28;20079;-92
2022/06/08 03:29:50;;;;;;;12.82;6.40;;;;;;;;;;5075037;28;20583;-89
2022/06/08 03:32:16;;;;;;;13.63;6.97;;;;;;;;;;5074802;28;20036;-89
2022/06/08 03:34:42;;;;;;;13.48;6.35;;;;;;;;;;5074731;28;20125;-88
2022/06/08 03:37:09;;;;;;;14.93;6.78;;;;;;;;;;5075103;28;20035;-88
2022/06/08 03:39:35;;;;;;;10.70;6.15;;;;;;;;;;5074810;28;20131;-90
2022/06/08 03:42:01;;;;;;;12.00;5.82;;;;;;;;;;5074768;28;20043;-86
2022/06/08 03:44:27;;;;;;;14.93;7.22;;;;;;;;;;5074857;28;20135;-88
2022/06/08 03:46:59;;;;;;;11.25;6.78;;;;;;;;;;5074350;28;20051;-87
2022/06/08 03:49:26;;;;;;;14.38;7.40;;;;;;;;;;5074601;28;20051;-89
2022/06/08 03:51:54;;;;;;;14.18;7.15;;;;;;;;;;5074499;28;20044;-88
2022/06/08 03:54:23;;;;;;;14.32;7.82;;;;;;;;;;5074714;28;20100;-91
2022/06/08 03:56:53;;;;;;;13.98;7.25;;;;;;;;;;5074867;28;20093;-89
2022/06/08 03:59:19;;;;;;;12.65;7.03;;;;;;;;;;5074996;28;20404;-88
2022/06/08 04:01:45;;;;;;;13.00;7.03;;;;;;;;;;5074750;28;20040;-87
2022/06/08 04:04:11;;;;;;;14.82;7.10;;;;;;;;;;5074295;28;20036;-86
2022/06/08 04:06:38;;;;;;;13.90;8.18;;;;;;;;;;5073895;28;20036;-88
2022/06/08 04:09:04;;;;;;;14.93;8.95;;;;;;;;;;5074398;28;20047;-89
2022/06/08 04:11:31;;;;;;;15.90;8.05;;;;;;;;;;5074092;28;20040;-92
2022/06/08 04:13:58;;;;;;;21.73;9.77;;;;;;;;;;5074026;28;20032;-87
2022/06/08 04:16:24;;;;;;;22.40;9.75;;;;;;;;;;5074227;28;20544;-89
2022/06/08 04:18:50;;;;;;;20.60;9.43;;;;;;;;;;5091126;28;20043;-88
2022/06/08 04:21:16;;;;;;;18.67;9.90;;;;;;;;;;5090892;28;20384;-91
2022/06/08 04:23:45;;;;;;;22.35;11.38;;;;;;;;;;5074034;28;20047;-88
2022/06/08 04:26:12;;;;;;;21.63;10.63;;;;;;;;;;5074101;28;20075;-88
2022/06/08 04:28:38;;;;;;;22.90;10.93;;;;;;;;;;5073939;28;20043;-86
2022/06/08 04:31:04;;;;;;;22.27;10.15;;;;;;;;;;5074070;28;20079;-86
2022/06/08 04:33:31;;;;;;;18.42;9.85;;;;;;;;;;5073906;28;20047;-86
2022/06/08 04:35:58;;;;;;;19.33;10.27;;;;;;;;;;5073885;28;20036;-86
2022/06/08 04:38:24;;;;;;;22.30;11.23;;;;;;;;;;5090695;28;20480;-87
2022/06/08 04:40:50;;;;;;;25.42;11.52;;;;;;;;;;5074176;28;20048;-89
2022/06/08 04:43:17;;;;;;;20.15;11.02;;;;;;;;;;5074409;28;20055;-87
2022/06/08 04:45:43;;;;;;;22.13;11.50;;;;;;;;;;5076654;28;20082;-86
2022/06/08 04:48:10;;;;;;;20.85;12.40;;;;;;;;;;5077826;28;20446;-90
2022/06/08 04:50:36;;;;;;;24.35;12.10;;;;;;;;;;5077865;28;20043;-85
2022/06/08 04:53:02;;;;;;;21.85;12.00;;;;;;;;;;5077513;28;20048;-86
2022/06/08 04:55:29;;;;;;;22.92;11.73;;;;;;;;;;5073616;28;20400;-88
2022/06/08 04:57:55;;;;;;;22.25;10.43;;;;;;;;;;5074128;28;20093;-88
2022/06/08 05:00:22;;;;;;;17.92;10.52;;;;;;;;;;5073592;28;20040;-87
2022/06/08 05:02:48;;;;;;;18.52;10.93;;;;;;;;;;5074232;28;20048;-87
2022/06/08 05:05:17;;;;;;;20.52;10.50;;;;;;;;;;5091354;28;20059;-91
2022/06/08 05:07:43;;;;;;;18.48;11.27;;;;;;;;;;5074516;28;20051;-86
2022/06/08 05:10:10;;;;;;;17.20;10.60;;;;;;;;;;5073639;28;20040;-90
2022/06/08 05:12:36;;;;;;;22.23;11.73;;;;;;;;;;5073764;28;20385;-91
2022/06/08 05:15:06;;;;;;;17.55;11.02;;;;;;;;;;5074409;28;20112;-86
2022/06/08 05:17:32;;;;;;;20.88;11.18;;;;;;;;;;5074912;28;20096;-85
2022/06/08 05:19:59;;;;;;;21.70;10.90;;;;;;;;;;5074018;28;20039;-87
2022/06/08 05:22:25;;;;;;;23.23;11.70;;;;;;;;;;5073248;28;20146;-87
2022/06/08 05:24:51;;;;;;;21.75;12.02;;;;;;;;;;5074339;28;20127;-82
2022/06/08 05:27:17;;;;;;;23.15;11.98;;;;;;;;;;5074099;28;20107;-83
2022/06/08 05:29:44;;;;;;;21.65;11.57;;;;;;;;;;5074024;28;20083;-89
2022/06/08 05:32:10;;;;;;;21.00;11.23;;;;;;;;;;5073156;28;20131;-84
2022/06/08 05:34:36;;;;;;;23.38;12.27;;;;;;;;;;5072771;28;20123;-83
2022/06/08 05:37:02;;;;;;;20.10;11.35;;;;;;;;;;5073021;28;20043;-89
2022/06/08 05:39:28;;;;;;;22.38;10.95;;;;;;;;;;5092932;28;20101;-88
2022/06/08 05:41:54;;;;;;;22.10;12.18;;;;;;;;;;5077480;28;20044;-85
2022/06/08 05:44:21;;;;;;;22.10;12.15;;;;;;;;;;5078070;28;20047;-85
2022/06/08 05:46:50;;;;;;;24.50;12.88;;;;;;;;;;5077318;28;20055;-87
2022/06/08 05:49:17;;;;;;;21.60;11.70;;;;;;;;;;5076579;28;20047;-86
2022/06/08 05:51:43;;;;;;;24.77;11.90;;;;;;;;;;5066812;28;20052;-83
2022/06/08 05:54:10;;;;;;;23.15;12.40;;;;;;;;;;5057131;28;20036;-89
2022/06/08 05:56:36;;;;;;;25.25;13.15;;;;;;;;;;5073747;28;20090;-87
2022/06/08 05:59:03;;;;;;;27.70;13.75;;;;;;;;;;5058097;28;20082;-92
2022/06/08 06:01:30;;;;;;;24.63;12.50;;;;;;;;;;5073858;28;20048;-83
2022/06/08 06:03:56;;;;;;;25.55;13.07;;;;;;;;;;5056374;28;20040;-79
2022/06/08 06:06:22;;;;;;;25.67;12.93;;;;;;;;;;5055836;28;20043;-88
2022/06/08 06:08:47;;;;;;;25.13;13.07;;;;;;;;;;5056552;28;20075;-86
2022/06/08 06:11:14;;;;;;;27.23;12.88;;;;;;;;;;5056087;28;20447;-87
2022/06/08 06:13:40;;;;;;;23.45;12.68;;;;;;;;;;5056077;28;20036;-88
2022/06/08 06:16:07;;;;;;;28.08;13.63;;;;;;;;;;5055773;28;20043;-84
2022/06/08 06:18:33;;;;;;;27.15;13.00;;;;;;;;;;5055682;28;20071;-83
2022/06/08 06:20:59;;;;;;;23.77;13.10;;;;;;;;;;5072010;28;20106;-89
2022/06/08 06:23:26;;;;;;;27.00;13.13;;;;;;;;;;5055551;28;20051;-85
2022/06/08 06:25:52;;;;;;;23.20;13.00;;;;;;;;;;5055606;28;20392;-85
2022/06/08 06:28:18;;;;;;;24.10;12.85;;;;;;;;;;5055208;28;20051;-85
2022/06/08 06:30:44;;;;;;;23.55;12.75;;;;;;;;;;5072011;28;20093;-85
2022/06/08 06:33:12;;;;;;;23.48;12.80;;;;;;;;;;5058912;28;20064;-85
2022/06/08 06:35:38;;;;;;;21.70;12.77;;;;;;;;;;5063459;28;20036;-86
2022/06/08 06:38:04;;;;;;;16.63;10.82;;;;;;;;;;5064917;28;20032;-85
2022/06/08 06:40:30;;;;;;;18.20;11.27;;;;;;;;;;5064272;28;20118;-83
2022/06/08 06:42:57;;;;;;;19.25;11.23;;;;;;;;;;5063620;28;20039;-87
2022/06/08 06:45:23;;;;;;;19.27;9.85;;;;;;;;;;5065410;28;20426;-86
2022/06/08 06:47:49;;;;;;;19.27;10.82;;;;;;;;;;5063893;28;20051;-86
2022/06/08 06:50:17;;;;;;;17.02;10.95;;;;;;;;;;5063691;28;20075;-82
2022/06/08 06:52:44;;;;;;;17.55;10.05;;;;;;;;;;5064920;28;20097;-85
2022/06/08 06:55:25;;;;;;;15.98;10.27;;;;;;;;;;5063777;28;20123;-82
2022/06/08 06:57:51;;;;;;;15.57;9.43;;;;;;;;;;5095465;28;20046;-85
2022/06/08 07:00:18;;;;;;;13.98;9.27;;;;;;;;;;5062966;28;20039;-82
2022/06/08 07:02:44;;;;;;;14.10;9.60;;;;;;;;;;5065752;28;20550;-85
2022/06/08 07:05:15;;;;;;;12.32;8.77;;;;;;;;;;5088587;28;20040;-84
2022/06/08 07:07:41;;;;;;;12.40;8.60;;;;;;;;;;5074937;28;20397;-81
2022/06/08 07:10:07;;;;;;;12.60;10.52;;;;;;;;;;5074038;28;20054;-82
2022/06/08 07:12:33;;;;;;;10.88;8.43;;;;;;;;;;5074515;28;20044;-85
2022/06/08 07:14:59;;;;;;;12.18;8.90;;;;;;;;;;5074827;28;20043;-84
2022/06/08 07:17:25;;;;;;;13.32;8.07;;;;;;;;;;5074623;28;20032;-80
2022/06/08 07:19:51;;;;;;;11.38;8.43;;;;;;;;;;5075137;28;20035;-84
2022/06/08 07:22:17;;;;;;;10.80;8.55;;;;;;;;;;5074352;28;20414;-87
2022/06/08 07:24:43;;;;;;;13.13;10.40;;;;;;;;;;5074672;28;20130;-85
2022/06/08 07:27:09;;;;;;;11.85;10.18;;;;;;;;;;5074537;28;20043;-84
2022/06/08 07:29:35;;;;;;;12.13;10.77;;;;;;;;;;5074520;28;20036;-83
2022/06/08 07:32:02;;;;;;;13.38;10.20;;;;;;;;;;5074398;28;20062;-84
2022/06/08 07:34:28;;;;;;;11.48;10.38;;;;;;;;;;5074819;28;20040;-84
2022/06/08 07:36:55;;;;;;;11.35;9.70;;;;;;;;;;5074276;28;20042;-84
2022/06/08 07:39:21;;;;;;;11.70;10.50;;;;;;;;;;5074567;28;20052;-83
2022/06/08 07:41:49;;;;;;;12.45;10.57;;;;;;;;;;5074186;28;20044;-81
2022/06/08 07:44:15;;;;;;;11.70;10.52;;;;;;;;;;5091038;28;20407;-83
2022/06/08 07:46:41;;;;;;;13.05;10.90;;;;;;;;;;5074538;28;20036;-87
2022/06/08 07:51:54;;;;;;;12.60;10.45;;;;;;;;;;5090794;28;20044;-83
2022/06/08 07:54:24;;;;;;;11.20;9.65;;;;;;;;;;5072175;28;20071;-85
2022/06/08 07:56:51;;;;;;;11.52;9.98;;;;;;;;;;5061914;28;20473;-82
2022/06/08 07:59:17;;;;;;;8.70;7.55;;;;;;;;;;5063065;28;20066;-85
2022/06/08 08:01:43;;;;;;;9.10;7.43;;;;;;;;;;5064003;28;20048;-85
2022/06/08 08:04:09;;;;;;;8.93;6.95;;;;;;;;;;5061450;28;20032;-83
2022/06/08 08:06:35;;;;;;;8.10;6.63;;;;;;;;;;5062838;28;20059;-85
2022/06/08 08:09:01;;;;;;;5.70;5.20;;;;;;;;;;5064994;28;20119;-90
2022/06/08 08:11:28;;;;;;;5.70;4.82;;;;;;;;;;5062210;28;20044;-86
2022/06/08 08:13:54;;;;;;;5.15;4.65;;;;;;;;;;5063867;28;20032;-82
2022/06/08 08:16:20;;;;;;;8.10;6.28;;;;;;;;;;5061375;28;20036;-82
2022/06/08 08:18:46;;;;;;;6.47;5.20;;;;;;;;;;5064465;28;20067;-87
2022/06/08 08:21:15;;;;;;;5.15;3.92;;;;;;;;;;5079861;28;20522;-86
2022/06/08 08:23:41;;;;;;;5.68;5.05;;;;;;;;;;5066905;28;20086;-83
2022/06/08 08:26:07;;;;;;;4.75;4.35;;;;;;;;;;5068376;28;20462;-88
2022/06/08 08:28:33;;;;;;;5.47;4.13;;;;;;;;;;5067965;28;20496;-89
2022/06/08 08:31:02;;;;;;;6.18;3.88;;;;;;;;;;5067480;28;20032;-87
2022/06/08 08:33:28;;;;;;;4.60;4.20;;;;;;;;;;5065742;28;20508;-86
2022/06/08 08:35:54;;;;;;;4.90;4.30;;;;;;;;;;5065694;28;20044;-85
2022/06/08 08:38:21;;;;;;;5.25;4.32;;;;;;;;;;5065901;28;20065;-83
2022/06/08 08:40:54;;;;;;;5.18;4.47;;;;;;;;;;5084015;28;20048;-86
2022/06/08 08:43:32;;;;;;;4.55;3.85;;;;;;;;;;5066331;28;20078;-83
2022/06/08 08:45:58;;;;;;;4.22;3.83;;;;;;;;;;5098848;28;20040;-86
2022/06/08 08:48:29;;;;;;;4.15;3.75;;;;;;;;;;5065662;28;20032;-88
2022/06/08 08:51:01;;;;;;;4.95;3.40;;;;;;;;;;5095953;28;20104;-86
2022/06/08 08:53:33;;;;;;;6.95;3.55;;;;;;;;;;5084143;28;20070;-86
2022/06/08 08:56:03;;;;;;;3.88;2.92;;;;;;;;;;5065194;28;20477;-84
2022/06/08 08:58:38;;;;;;;4.47;3.40;;;;;;;;;;5082270;28;20103;-83
2022/06/08 09:01:23;;;;;;;5.50;3.55;;;;;;;;;;5065876;28;20040;-81
2022/06/08 09:03:54;;;;;;;7.97;3.38;;;;;;;;;;5100976;28;20043;-84
2022/06/08 09:06:21;;;;;;;5.57;2.97;;;;;;;;;;5066325;28;20033;-83
2022/06/08 09:08:51;;;;;;;3.78;2.97;;;;;;;;;;5065277;28;20062;-84
2022/06/08 09:11:24;;;;;;;4.38;3.00;;;;;;;;;;5066392;28;20101;-82
2022/06/08 09:13:52;;;;;;;4.38;3.60;;;;;;;;;;5066877;28;20032;-84
2022/06/08 09:16:39;;;;;;;4.97;3.33;;;;;;;;;;5064197;28;20079;-85
2022/06/08 09:19:24;;;;;;;4.95;3.78;;;;;;;;;;5083574;28;20127;-82
2022/06/08 09:21:55;;;;;;;4.93;4.43;;;;;;;;;;5098266;28;20055;-86
2022/06/08 09:24:33;;;;;;;4.93;4.50;;;;;;;;;;5065936;28;20040;-83
2022/06/08 09:27:18;;;;;;;7.57;5.05;;;;;;;;;;5081489;28;20550;-85
2022/06/08 09:30:11;;;;;;;4.97;4.28;;;;;;;;;;5082631;28;20055;-84
2022/06/08 09:32:44;;;;;;;5.80;4.05;;;;;;;;;;5096357;28;20048;-85
2022/06/08 09:35:17;;;;;;;7.53;4.32;;;;;;;;;;5081964;28;20385;-85
2022/06/08 09:37:43;;;;;;;4.95;4.13;;;;;;;;;;5066479;28;20036;-82
2022/06/08 09:40:36;;;;;;;6.03;5.13;;;;;;;;;;5067140;28;20124;-82
2022/06/08 09:43:06;;;;;;;5.80;4.72;;;;;;;;;;5080574;28;20130;-83
2022/06/08 09:45:35;;;;;;;5.93;4.45;;;;;;;;;;5067857;28;20507;-86
2022/06/08 09:51:27;;;;;;;6.95;4.05;;;;;;;;;;5084882;28;20583;-79
2022/06/08 09:54:06;;;;;;;4.90;3.55;;;;;;;;;;5066738;28;20118;-84
2022/06/08 09:56:55;;;;;;;5.18;4.53;;;;;;;;;;5064777;28;20083;-85
2022/06/08 09:59:30;;;;;;;6.63;3.97;;;;;;;;;;5095770;28;20040;-83
2022/06/08 10:02:00;;;;;;;5.22;4.72;;;;;;;;;;5096099;28;20407;-87
2022/06/08 10:04:35;;;;;;;6.53;3.63;;;;;;;;;;5065692;28;20488;-84
2022/06/08 10:07:20;;;;;;;5.05;3.28;;;;;;;;;;5097374;28;20075;-82
2022/06/08 10:09:53;;;;;;;5.10;3.72;;;;;;;;;;5082219;28;20043;-82
2022/06/08 10:12:26;;;;;;;5.38;4.40;;;;;;;;;;5079649;28;20040;-84
2022/06/08 10:15:03;;;;;;;4.65;3.63;;;;;;;;;;5064472;28;20037;-85
2022/06/08 10:17:41;;;;;;;5.97;3.60;;;;;;;;;;5064529;28;20120;-83
2022/06/08 10:20:14;;;;;;;5.47;3.97;;;;;;;;;;5099152;28;20032;-84
2022/06/08 10:22:49;;;;;;;5.95;3.63;;;;;;;;;;5096711;28;20502;-80
2022/06/08 10:25:16;;;;;;;5.70;3.80;;;;;;;;;;5063849;28;20487;-83
2022/06/08 10:28:02;;;;;;;5.10;3.67;;;;;;;;;;5063831;28;20044;-88
2022/06/08 10:30:30;;;;;;;4.22;3.40;;;;;;;;;;5099308;28;20041;-87
2022/06/08 10:33:06;;;;;;;6.28;3.80;;;;;;;;;;5112609;27;20405;-87
2022/06/08 10:35:35;;;;;;;4.07;2.95;;;;;;;;;;5064830;28;20044;-87
2022/06/08 10:38:02;;;;;;;4.40;2.47;;;;;;;;;;5065569;28;20434;-88
2022/06/08 10:40:30;;;;;;;4.70;3.20;;;;;;;;;;5082831;28;20040;-79
2022/06/08 10:42:56;;;;;;;3.30;2.70;;;;;;;;;;5063772;28;20037;-85
2022/06/08 10:45:22;;;;;;;3.83;2.50;;;;;;;;;;5065274;28;20032;-83
2022/06/08 10:47:58;;;;;;;4.30;2.33;;;;;;;;;;5068602;28;20062;-84
2022/06/08 10:50:36;;;;;;;5.43;2.92;;;;;;;;;;5098418;28;20505;-84
2022/06/08 10:56:26;;;;;;;3.80;2.70;;;;;;;;;;5114972;27;20569;-84
2022/06/08 10:59:04;;;;;;;3.70;2.80;;;;;;;;;;5098985;28;20059;-82
2022/06/08 11:01:54;;;;;;;5.20;2.47;;;;;;;;;;5063969;28;20426;-82
2022/06/08 11:04:20;;;;;;;;;;;;;;;;;;5065527;28;20040;-84
2022/06/08 11:06:47;;;;;;;3.20;2.38;;;;;;;;;;5097702;28;19916;-81
2022/06/08 11:09:39;;;;;;;4.30;2.78;;;;;;;;;;5065831;28;20044;-84
2022/06/08 11:12:06;;;;;;;5.43;2.53;;;;;;;;;;5091979;28;20059;-87
2022/06/08 11:14:53;;;;;;;5.05;2.90;;;;;;;;;;5063293;28;20090;-87
2022/06/08 11:17:22;;;;;;;6.72;2.90;;;;;;;;;;5064970;28;20032;-84
2022/06/08 11:19:48;;;;;;;5.93;2.88;;;;;;;;;;5065643;28;20480;-87
2022/06/08 11:22:32;;;;;;;2.83;2.47;;;;;;;;;;5063584;28;20453;-85
2022/06/08 11:25:01;;;;;;;5.15;3.50;;;;;;;;;;5080556;28;20033;-83
2022/06/08 11:27:33;;;;;;;4.43;2.65;;;;;;;;;;5064064;28;20403;-86
2022/06/08 11:30:07;;;;;;;3.42;2.85;;;;;;;;;;5096628;28;20032;-81
2022/06/08 11:32:33;;;;;;;4.18;3.00;;;;;;;;;;5048421;28;20073;-86
2022/06/08 11:35:05;;;;;;;4.95;3.50;;;;;;;;;;5063750;28;20032;-81
2022/06/08 11:37:57;;;;;;;3.13;2.28;;;;;;;;;;5063062;28;20430;-83
2022/06/08 11:40:28;;;;;;;4.88;2.75;;;;;;;;;;5094718;28;20079;-85
2022/06/08 11:43:20;;;;;;;3.63;2.25;;;;;;;;;;5065736;28;20445;-82
2022/06/08 11:45:52;;;;;;;3.83;2.42;;;;;;;;;;5091892;28;20487;-83
2022/06/08 11:48:19;;;;;;;4.82;2.70;;;;;;;;;;5094698;28;20431;-86
2022/06/08 11:50:45;;;;;;;5.55;3.25;;;;;;;;;;5063667;28;20101;-82
2022/06/08 11:53:16;;;;;;;4.80;3.17;;;;;;;;;;5064500;28;20044;-84
2022/06/08 11:55:49;;;;;;;4.88;3.35;;;;;;;;;;5061645;28;20404;-82
2022/06/08 11:58:17;;;;;;;4.38;3.67;;;;;;;;;;5065467;28;20063;-86
2022/06/08 12:00:44;;;;;;;7.13;4.45;;;;;;;;;;5063666;28;20063;-84
2022/06/08 12:03:16;;;;;;;5.90;5.25;;;;;;;;;;5082286;28;20050;-85
2022/06/08 12:05:47;;;;;;;6.32;4.82;;;;;;;;;;5063745;28;20036;-84
2022/06/08 12:08:18;;;;;;;5.35;4.85;;;;;;;;;;5062898;28;20397;-83
2022/06/08 12:10:44;;;;;;;6.53;4.38;;;;;;;;;;5063622;28;20131;-82
2022/06/08 12:13:20;;;;;;;6.22;5.63;;;;;;;;;;5064230;28;20041;-87
2022/06/08 12:15:48;;;;;;;6.50;4.95;;;;;;;;;;5096841;28;20373;-84
2022/06/08 12:18:18;;;;;;;6.90;6.15;;;;;;;;;;5062507;28;20032;-84
2022/06/08 12:20:44;;;;;;;6.88;5.25;;;;;;;;;;5063724;28;20037;-87
2022/06/08 12:23:10;;;;;;;7.72;6.05;;;;;;;;;;5062670;28;20047;-83
2022/06/08 12:25:37;;;;;;;6.68;5.95;;;;;;;;;;5081993;28;20041;-86
2022/06/08 12:28:09;;;;;;;8.38;7.57;;;;;;;;;;5062273;28;20107;-82
2022/06/08 12:30:44;;;;;;;4.22;3.80;;;;;;;;;;5062589;28;20503;-84
2022/06/08 12:33:16;;;;;;;3.67;2.50;;;;;;;;;;5062435;28;20040;-80
2022/06/08 12:36:01;;;;;;;4.25;1.90;;;;;;;;;;5096818;28;20044;-87
2022/06/08 12:38:28;;;;;;;1.73;1.60;;;;;;;;;;5096813;28;20032;-86
2022/06/08 12:41:01;;;;;;;3.50;1.65;;;;;;;;;;5062494;28;20507;-83
2022/06/08 12:43:39;;;;;;;1.83;1.67;;;;;;;;;;5062859;28;20036;-87
2022/06/08 12:46:05;;;;;;;1.90;1.20;;;;;;;;;;5096825;28;20040;-85
2022/06/08 12:48:37;;;;;;;3.10;0.90;;;;;;;;;;5062892;28;20033;-84
2022/06/08 12:51:23;;;;;;;2.63;1.10;;;;;;;;;;5080596;28;20043;-86
2022/06/08 12:53:49;;;;;;;2.15;0.95;;;;;;;;;;5085283;28;20497;-83
2022/06/08 12:56:17;;;;;;;3.05;1.52;;;;;;;;;;5061977;28;20248;-82
2022/06/08 12:58:47;;;;;;;2.53;1.48;;;;;;;;;;5063188;28;20040;-87
2022/06/08 13:01:14;;;;;;;3.10;1.40;;;;;;;;;;5064857;28;20040;-82
2022/06/08 13:03:41;;;;;;;6.22;1.70;;;;;;;;;;5063034;28;20497;-82
2022/06/08 13:06:07;;;;;;;3.95;2.05;;;;;;;;;;5062368;28;20047;-86
2022/06/08 13:08:33;;;;;;;3.72;2.08;;;;;;;;;;5084728;28;20069;-85
2022/06/08 13:11:00;;;;;;;3.53;1.90;;;;;;;;;;5068545;28;20116;-85
2022/06/08 13:13:28;;;;;;;4.75;1.80;;;;;;;;;;5066677;28;20028;-82
2022/06/08 13:15:55;;;;;;;3.42;1.20;;;;;;;;;;5065634;28;20051;-88
2022/06/08 13:18:23;;;;;;;4.47;1.48;;;;;;;;;;5066999;28;20400;-82
2022/06/08 13:20:50;;;;;;;7.53;1.85;;;;;;;;;;5067721;28;20468;-85
2022/06/08 13:23:16;;;;;;;2.60;1.45;;;;;;;;;;5057202;28;20490;-89
2022/06/08 13:25:43;;;;;;;2.80;1.75;;;;;;;;;;5060312;28;20056;-87
2022/06/08 13:28:12;;;;;;;4.18;1.58;;;;;;;;;;5066697;28;20373;-87
2022/06/08 13:30:38;;;;;;;2.38;1.40;;;;;;;;;;5084894;28;20039;-84
2022/06/08 13:33:04;;;;;;;2.28;1.77;;;;;;;;;;5065828;28;20036;-87
2022/06/08 13:35:31;;;;;;;6.55;2.28;;;;;;;;;;5082237;28;20028;-86
2022/06/08 13:37:58;;;;;;;3.40;1.58;;;;;;;;;;5067275;28;20036;-82
2022/06/08 13:40:25;;;;;;;4.72;1.83;;;;;;;;;;5066285;28;20392;-87
2022/06/08 13:42:52;;;;;;;2.42;1.92;;;;;;;;;;5067105;28;20040;-82
2022/06/08 13:45:20;;;;;;;4.15;2.40;;;;;;;;;;5084027;28;20093;-84
2022/06/08 13:47:49;;;;;;;5.00;2.28;;;;;;;;;;5065706;28;20036;-86
2022/06/08 13:50:17;;;;;;;6.63;2.65;;;;;;;;;;5064878;28;21037;-87
2022/06/08 13:52:44;;;;;;;3.88;2.42;;;;;;;;;;5067672;28;20097;-89
2022/06/08 13:55:18;;;;;;;6.10;2.78;;;;;;;;;;5066004;28;20072;-85
2022/06/08 13:57:46;;;;;;;5.50;3.10;;;;;;;;;;5090212;28;20043;-85
2022/06/08 14:00:12;;;;;;;4.05;3.17;;;;;;;;;;5091186;28;20434;-85
2022/06/08 14:02:47;;;;;;;4.78;3.15;;;;;;;;;;5091536;28;20480;-87
2022/06/08 14:05:16;;;;;;;5.57;3.30;;;;;;;;;;5091219;28;20048;-87
2022/06/08 14:13:19;;;;;;;6.15;3.75;;;;;;;;;;5079771;28;20431;-86
2022/06/08 14:15:46;;;;;;;8.60;4.57;;;;;;;;;;5063986;28;20037;-86
2022/06/08 14:18:20;;;;;;;4.45;4.03;;;;;;;;;;5060972;28;20032;-85
2022/06/08 14:20:46;;;;;;;8.15;5.10;;;;;;;;;;5096391;28;20115;-88
2022/06/08 14:23:14;;;;;;;4.25;3.85;;;;;;;;;;5064209;28;20484;-85
2022/06/08 14:25:41;;;;;;;9.38;4.88;;;;;;;;;;5065537;28;20062;-88
2022/06/08 14:28:08;;;;;;;6.00;4.20;;;;;;;;;;5082424;28;20036;-88
2022/06/08 14:30:34;;;;;;;7.18;4.10;;;;;;;;;;5065609;28;20050;-83
2022/06/08 14:33:01;;;;;;;6.32;4.32;;;;;;;;;;5063425;28;20079;-85
2022/06/08 14:35:34;;;;;;;5.72;4.22;;;;;;;;;;5063411;28;20039;-86
2022/06/08 14:38:01;;;;;;;7.82;4.57;;;;;;;;;;5063128;28;20492;-87
2022/06/08 14:40:32;;;;;;;6.63;5.05;;;;;;;;;;5080150;28;20052;-86
2022/06/08 14:42:58;;;;;;;7.65;4.70;;;;;;;;;;5081980;28;20120;-83
2022/06/08 14:45:26;;;;;;;9.98;4.82;;;;;;;;;;5063514;28;20123;-82
2022/06/08 14:47:52;;;;;;;8.00;5.05;;;;;;;;;;5063481;28;20245;-87
2022/06/08 14:50:19;;;;;;;7.90;4.75;;;;;;;;;;5064543;28;20609;-85
2022/06/08 14:52:46;;;;;;;8.18;4.20;;;;;;;;;;5061822;28;20119;-85
2022/06/08 14:58:00;;;;;;;6.57;4.55;;;;;;;;;;5112459;27;20127;-87
2022/06/08 15:00:27;;;;;;;10.77;5.28;;;;;;;;;;5063174;28;20043;-82
2022/06/08 15:02:53;;;;;;;6.85;5.10;;;;;;;;;;5063547;28;20039;-84
2022/06/08 15:05:20;;;;;;;7.15;4.78;;;;;;;;;;5061814;28;20051;-83
2022/06/08 15:07:50;;;;;;;6.20;4.93;;;;;;;;;;5063884;28;20047;-81